Time;durP1;ratioP1;P1;durP2;ratioP2;P2;SDS_P1;SDS_P2;PMS_P1;PMS_P2;Temp;Humidity;BMP_temperature;BMP_pressure;BME280_temperature;BME280_humidity;BME280_pressure;Samples;Min_cycle;Max_cycle;Signal;HPM_P1;HPM_P2
2022/11/20 00:00:06;;;;;;;3.19;3.04;;;;;;;3.89;75.44;101374.03;493047;107;922450;-72
2022/11/20 00:01:15;;;;;;;2.77;2.62;;;;;;;3.89;75.38;101364.09;493065;107;922408;-73
2022/11/20 00:02:18;;;;;;;3.08;2.88;;;;;;;3.91;75.30;101369.34;493275;106;930295;-73
2022/11/20 00:03:21;;;;;;;2.87;2.69;;;;;;;3.92;75.42;101371.86;494106;106;922523;-73
2022/11/20 00:04:24;;;;;;;3.06;2.88;;;;;;;3.95;75.38;101378.82;494104;106;922694;-73
2022/11/20 00:05:27;;;;;;;3.30;3.11;;;;;;;3.96;75.25;101383.22;494166;106;922464;-73
2022/11/20 00:06:30;;;;;;;3.41;3.21;;;;;;;3.94;75.16;101379.81;494148;106;922430;-73
2022/11/20 00:07:33;;;;;;;3.29;3.08;;;;;;;3.95;75.25;101376.12;494167;106;922504;-72
2022/11/20 00:08:36;;;;;;;2.77;2.67;;;;;;;3.95;75.17;101381.52;494160;106;922435;-72
2022/11/20 00:09:39;;;;;;;3.28;3.08;;;;;;;3.94;75.06;101387.91;494144;107;922481;-72
2022/11/20 00:10:42;;;;;;;2.89;2.79;;;;;;;3.92;74.76;101401.54;494175;106;922472;-73
2022/11/20 00:11:45;;;;;;;3.08;2.87;;;;;;;3.88;74.72;101393.91;494019;107;922631;-72
2022/11/20 00:12:48;;;;;;;2.92;2.78;;;;;;;3.84;74.79;101397.92;494173;106;922402;-72
2022/11/20 00:13:53;;;;;;;3.04;2.89;;;;;;;3.82;74.87;101397.20;494108;106;923141;-72
2022/11/20 00:14:56;;;;;;;3.23;3.03;;;;;;;3.80;74.96;101391.98;493928;107;922488;-72
2022/11/20 00:16:04;;;;;;;3.20;3.06;;;;;;;3.81;74.96;101396.36;494123;106;922479;-73
2022/11/20 00:17:07;;;;;;;3.20;3.00;;;;;;;3.82;75.05;101389.12;502137;105;922773;-73
2022/11/20 00:18:10;;;;;;;3.83;3.62;;;;;;;3.83;75.03;101398.91;503583;104;922469;-73
2022/11/20 00:19:13;;;;;;;3.66;3.46;;;;;;;3.84;75.10;101387.98;503573;105;922428;-73
2022/11/20 00:20:16;;;;;;;3.14;2.94;;;;;;;3.85;75.20;101388.83;503624;104;922982;-74
2022/11/20 00:21:21;;;;;;;3.34;3.14;;;;;;;3.86;75.16;101391.35;503556;105;922726;-73
2022/11/20 00:22:25;;;;;;;3.09;2.89;;;;;;;3.86;75.06;101394.05;503353;105;922896;-73
2022/11/20 00:23:28;;;;;;;3.58;3.37;;;;;;;3.86;75.12;101388.66;503562;104;922481;-73
2022/11/20 00:24:31;;;;;;;3.43;3.23;;;;;;;3.88;75.04;101391.20;503613;104;922432;-74
2022/11/20 00:25:35;;;;;;;3.85;3.06;;;;;;;3.88;75.12;101394.76;503591;105;922420;-72
2022/11/20 00:26:38;;;;;;;3.66;3.46;;;;;;;3.88;74.97;101383.12;503352;104;922685;-72
2022/11/20 00:27:41;;;;;;;3.83;3.63;;;;;;;3.88;74.90;101375.02;503596;104;922470;-73
2022/11/20 00:28:50;;;;;;;3.42;3.22;;;;;;;3.87;74.80;101376.02;503581;104;922440;-73
2022/11/20 00:29:53;;;;;;;4.27;4.06;;;;;;;3.84;74.83;101379.03;502612;105;922529;-72
2022/11/20 00:31:05;;;;;;;3.93;3.73;;;;;;;3.84;75.01;101379.03;500340;106;922466;-72
2022/11/20 00:32:15;;;;;;;4.27;4.03;;;;;;;3.96;75.08;101391.31;477211;110;946832;-72
2022/11/20 00:33:18;;;;;;;3.74;3.54;;;;;;;3.84;75.04;101393.37;459462;113;922493;-74
2022/11/20 00:34:22;;;;;;;3.89;3.69;;;;;;;3.84;74.96;101395.22;457417;116;922596;-73
2022/11/20 00:35:25;;;;;;;3.63;3.43;;;;;;;3.85;75.03;101400.47;457492;116;922603;-72
2022/11/20 00:36:30;;;;;;;3.56;3.36;;;;;;;3.84;74.87;101392.52;457341;116;922625;-72
2022/11/20 00:37:33;;;;;;;3.48;3.28;;;;;;;3.82;74.72;101386.42;457301;116;922529;-72
2022/11/20 00:38:36;;;;;;;3.57;3.37;;;;;;;3.80;74.71;101383.89;457501;116;922695;-73
2022/11/20 00:39:39;;;;;;;3.81;3.61;;;;;;;3.79;74.76;101392.98;457397;116;922535;-72
2022/11/20 00:40:42;;;;;;;3.74;3.54;;;;;;;3.77;74.77;101395.82;457436;116;922888;-73
2022/11/20 00:41:45;;;;;;;3.71;3.51;;;;;;;3.76;74.75;101401.36;457421;116;922622;-73
2022/11/20 00:42:48;;;;;;;3.34;3.14;;;;;;;3.75;74.83;101403.20;457466;116;922458;-73
2022/11/20 00:43:52;;;;;;;4.08;3.88;;;;;;;3.75;74.75;101407.75;457465;116;922543;-73
2022/11/20 00:44:55;;;;;;;3.37;3.17;;;;;;;3.74;74.78;101406.07;457274;116;922566;-73
2022/11/20 00:46:00;;;;;;;3.91;3.71;;;;;;;3.74;74.86;101416.86;457454;116;922515;-73
2022/11/20 00:47:03;;;;;;;3.77;3.57;;;;;;;3.75;74.88;101407.75;457005;116;922947;-73
2022/11/20 00:48:06;;;;;;;4.12;3.92;;;;;;;3.76;74.99;101417.54;457451;116;922588;-74
2022/11/20 00:49:09;;;;;;;3.39;3.21;;;;;;;3.80;74.98;101418.11;457445;116;922496;-73
2022/11/20 00:50:14;;;;;;;4.11;3.82;;;;;;;3.81;74.96;101414.39;457207;116;922768;-73
2022/11/20 00:51:20;;;;;;;3.70;3.50;;;;;;;3.81;74.89;101414.39;457416;116;922410;-73
2022/11/20 00:52:22;;;;;;;4.09;3.89;;;;;;;3.80;74.93;101405.47;457255;116;923144;-73
2022/11/20 00:53:26;;;;;;;3.99;3.78;;;;;;;3.80;74.95;101408.17;457429;116;922601;-73
2022/11/20 00:54:28;;;;;;;3.91;3.71;;;;;;;3.81;75.00;101403.59;457389;116;922515;-73
2022/11/20 00:55:31;;;;;;;3.91;3.71;;;;;;;3.81;74.88;101412.54;457468;116;922794;-73
2022/11/20 00:56:34;;;;;;;3.59;3.39;;;;;;;3.80;74.95;101410.88;457442;116;922649;-73
2022/11/20 00:57:37;;;;;;;4.30;4.10;;;;;;;3.81;74.81;101417.08;457460;116;922535;-74
2022/11/20 00:58:42;;;;;;;3.83;3.62;;;;;;;3.80;74.82;101418.96;457592;115;922405;-73
2022/11/20 00:59:45;;;;;;;4.02;3.82;;;;;;;3.79;74.97;101428.05;457480;116;922813;-72
2022/11/20 01:00:49;;;;;;;4.22;4.02;;;;;;;3.81;74.99;101431.42;457625;115;922408;-74
2022/11/20 01:01:52;;;;;;;3.84;3.64;;;;;;;3.82;74.97;101421.48;457433;116;923136;-73
2022/11/20 01:02:56;;;;;;;4.08;3.88;;;;;;;3.83;74.92;101423.19;457560;115;930540;-73
2022/11/20 01:04:00;;;;;;;3.86;3.66;;;;;;;3.84;74.92;101417.66;457538;115;922618;-73
2022/11/20 01:05:03;;;;;;;4.53;4.31;;;;;;;3.81;74.76;101417.94;457451;116;930480;-72
2022/11/20 01:06:09;;;;;;;4.18;3.98;;;;;;;3.80;74.78;101421.66;457547;115;922479;-73
2022/11/20 01:07:12;;;;;;;3.95;3.75;;;;;;;3.76;74.81;101415.70;456915;114;930680;-73
2022/11/20 01:08:15;;;;;;;4.04;3.84;;;;;;;3.76;74.89;101429.18;455417;116;922958;-71
2022/11/20 01:09:17;;;;;;;4.16;3.96;;;;;;;3.75;74.83;101429.32;455438;116;922924;-71
2022/11/20 01:10:21;;;;;;;4.17;3.97;;;;;;;3.74;74.84;101438.44;455491;116;923030;-72
2022/11/20 01:11:26;;;;;;;4.26;4.06;;;;;;;3.72;74.85;101433.19;446100;118;922685;-72
2022/11/20 01:12:36;;;;;;;3.76;3.56;;;;;;;3.81;74.71;101439.52;488193;107;933331;-73
2022/11/20 01:13:40;;;;;;;4.22;3.94;;;;;;;3.66;74.76;101436.48;469200;111;922861;-71
2022/11/20 01:14:43;;;;;;;4.26;4.06;;;;;;;3.64;74.83;101433.06;467109;113;922526;-72
2022/11/20 01:15:46;;;;;;;4.41;4.21;;;;;;;3.62;74.83;101429.69;467207;113;922589;-72
2022/11/20 01:16:51;;;;;;;3.88;3.64;;;;;;;3.61;74.89;101436.08;467121;113;923013;-73
2022/11/20 01:17:54;;;;;;;4.16;3.96;;;;;;;3.59;74.77;101440.76;466899;113;923017;-73
2022/11/20 01:18:59;;;;;;;4.02;3.72;;;;;;;3.57;74.79;101447.31;467127;113;922464;-72
2022/11/20 01:20:02;;;;;;;4.45;4.23;;;;;;;3.54;74.94;101442.20;466907;113;923104;-72
2022/11/20 01:21:08;;;;;;;4.81;4.52;;;;;;;3.51;75.05;101443.36;467088;113;922907;-73
2022/11/20 01:22:11;;;;;;;4.42;4.22;;;;;;;3.50;75.02;101438.11;466678;113;922529;-73
2022/11/20 01:23:14;;;;;;;4.00;3.80;;;;;;;3.49;75.12;101434.56;467080;113;922506;-72
2022/11/20 01:24:19;;;;;;;4.11;3.91;;;;;;;3.51;75.27;101435.28;467100;113;922553;-73
2022/11/20 01:25:22;;;;;;;4.47;4.17;;;;;;;3.53;75.36;101425.17;466931;113;922464;-72
2022/11/20 01:26:27;;;;;;;4.54;4.34;;;;;;;3.56;75.52;101424.89;467141;113;922431;-72
2022/11/20 01:27:30;;;;;;;4.83;4.53;;;;;;;3.59;75.40;101426.42;466889;113;922987;-73
2022/11/20 01:28:34;;;;;;;5.83;5.48;;;;;;;3.61;75.37;101424.44;467097;113;922409;-73
2022/11/20 01:29:37;;;;;;;5.54;5.24;;;;;;;3.63;75.39;101426.00;467031;113;922776;-72
2022/11/20 01:30:39;;;;;;;4.81;4.51;;;;;;;3.65;75.37;101421.28;464573;114;924814;-73
2022/11/20 01:31:43;;;;;;;4.67;4.40;;;;;;;3.67;75.21;101415.75;464525;114;922507;-74
2022/11/20 01:32:46;;;;;;;5.29;4.99;;;;;;;3.67;75.20;101419.30;466381;111;922606;-73
2022/11/20 01:33:51;;;;;;;5.37;5.07;;;;;;;3.67;75.11;101416.61;467150;111;922484;-74
2022/11/20 01:34:53;;;;;;;5.52;5.22;;;;;;;3.65;75.00;101413.20;466975;113;922411;-73
2022/11/20 01:36:00;;;;;;;5.88;5.53;;;;;;;3.64;75.15;101414.19;467145;113;922398;-72
2022/11/20 01:37:03;;;;;;;5.55;5.25;;;;;;;3.65;75.13;101409.65;464018;113;922564;-73
2022/11/20 01:38:05;;;;;;;5.92;5.54;;;;;;;3.63;75.13;101417.06;467168;113;922504;-74
2022/11/20 01:39:17;;;;;;;5.44;5.14;;;;;;;3.62;75.16;101413.52;467116;113;922419;-73
2022/11/20 01:40:20;;;;;;;5.81;5.47;;;;;;;3.61;75.12;101406.41;465894;113;922645;-73
2022/11/20 01:44:14;;;;;;;4.52;4.28;;;;;;;3.62;75.34;101407.27;466986;113;923021;-73
2022/11/20 01:45:43;;;;;;;4.68;4.39;;;;;;;3.62;75.32;101413.52;466957;113;922960;-73
2022/11/20 01:46:59;;;;;;;4.58;4.37;;;;;;;3.61;75.22;101422.59;467087;113;922749;-73
2022/11/20 01:48:02;;;;;;;4.82;4.53;;;;;;;3.57;75.00;101431.14;466948;111;922988;-73
2022/11/20 01:49:17;;;;;;;4.50;4.30;;;;;;;3.53;75.18;101435.14;467155;113;922471;-73
2022/11/20 01:50:28;;;;;;;5.34;5.04;;;;;;;3.51;75.29;101435.28;466967;113;922483;-73
2022/11/20 01:51:50;;;;;;;4.74;4.49;;;;;;;3.50;75.16;101441.66;466932;113;922961;-73
2022/11/20 01:53:02;;;;;;;5.71;5.39;;;;;;;3.49;75.18;101436.41;466954;113;922643;-72
2022/11/20 01:54:08;;;;;;;5.42;5.12;;;;;;;3.44;75.21;101431.47;466946;113;922569;-73
2022/11/20 01:55:14;;;;;;;4.24;4.04;;;;;;;3.42;75.28;101428.05;466845;113;922902;-71
2022/11/20 01:56:18;;;;;;;4.40;4.20;;;;;;;3.42;75.28;101428.05;466956;113;922993;-73
2022/11/20 01:57:24;;;;;;;5.19;4.89;;;;;;;3.42;75.08;101435.33;467082;113;922612;-72
2022/11/20 01:58:30;;;;;;;4.41;4.19;;;;;;;3.40;75.03;101429.22;473287;111;930694;-73
2022/11/20 01:59:34;;;;;;;4.78;4.46;;;;;;;3.38;75.03;101434.75;475307;111;922770;-73
2022/11/20 02:00:37;;;;;;;4.06;3.86;;;;;;;3.36;75.14;101437.58;475529;111;922905;-73
2022/11/20 02:01:40;;;;;;;4.17;3.97;;;;;;;3.33;74.84;101437.04;475624;111;922817;-73
2022/11/20 02:02:49;;;;;;;4.97;4.71;;;;;;;3.30;74.85;101442.73;475626;111;922600;-74
2022/11/20 02:03:53;;;;;;;4.36;4.15;;;;;;;3.26;74.99;101455.64;464426;111;923008;-74
2022/11/20 02:04:59;;;;;;;5.04;4.74;;;;;;;3.23;75.10;101461.33;456823;116;922549;-75
2022/11/20 02:06:06;;;;;;;4.63;4.43;;;;;;;3.23;75.05;101461.33;456624;116;930473;-73
2022/11/20 02:07:09;;;;;;;4.65;4.45;;;;;;;3.23;75.13;101455.09;456248;116;922487;-74
2022/11/20 02:08:12;;;;;;;4.98;4.73;;;;;;;3.23;75.17;101449.70;456882;114;922520;-73
2022/11/20 02:09:16;;;;;;;5.24;4.94;;;;;;;3.24;75.22;101440.63;456802;116;922483;-73
2022/11/20 02:10:19;;;;;;;5.33;5.03;;;;;;;3.25;75.19;101448.54;456814;116;922579;-73
2022/11/20 02:11:22;;;;;;;5.28;4.97;;;;;;;3.25;75.12;101450.41;456852;116;930550;-73
2022/11/20 02:13:47;;;;;;;5.07;4.87;;;;;;;3.22;75.09;101450.69;456682;114;922513;-73
2022/11/20 02:14:50;;;;;;;5.47;5.19;;;;;;;3.21;75.16;101440.90;456830;116;922540;-73
2022/11/20 02:15:53;;;;;;;5.41;5.11;;;;;;;3.21;75.27;101439.06;456933;116;922520;-73
2022/11/20 02:16:57;;;;;;;4.94;4.64;;;;;;;3.23;75.36;101444.31;463724;113;922643;-72
2022/11/20 02:18:00;;;;;;;5.24;4.94;;;;;;;3.22;75.39;101445.30;466982;113;922961;-73
2022/11/20 02:19:07;;;;;;;5.43;5.14;;;;;;;3.24;75.34;101448.71;467053;113;922476;-73
2022/11/20 02:20:12;;;;;;;4.52;4.32;;;;;;;3.26;75.37;101438.61;465812;113;922773;-73
2022/11/20 02:21:36;;;;;;;5.26;4.92;;;;;;;3.27;75.39;101446.56;467007;113;922492;-73
2022/11/20 02:22:59;;;;;;;5.44;5.14;;;;;;;3.29;75.30;101452.66;466880;113;922658;-73
2022/11/20 02:24:10;;;;;;;5.13;4.83;;;;;;;3.24;75.12;101463.04;466769;113;922484;-73
2022/11/20 02:25:14;;;;;;;5.31;5.01;;;;;;;3.24;75.12;101463.04;466822;113;922684;-73
2022/11/20 02:26:22;;;;;;;5.16;4.86;;;;;;;3.21;75.11;101463.31;466809;113;922497;-73
2022/11/20 02:27:26;;;;;;;5.39;5.09;;;;;;;3.20;75.17;101463.45;466785;113;922501;-73
2022/11/20 02:28:29;;;;;;;5.09;4.79;;;;;;;3.19;75.32;101457.23;466780;113;922708;-73
2022/11/20 02:29:57;;;;;;;4.92;4.64;;;;;;;3.20;75.51;101456.22;466930;113;930466;-73
2022/11/20 02:31:00;;;;;;;5.23;4.93;;;;;;;3.23;75.40;101461.33;464235;114;922993;-72
2022/11/20 02:32:04;;;;;;;5.45;5.15;;;;;;;3.22;75.27;101454.23;464472;113;922484;-73
2022/11/20 02:33:06;;;;;;;4.97;4.74;;;;;;;3.20;75.28;101444.59;466933;111;923346;-74
2022/11/20 02:34:09;;;;;;;5.39;5.09;;;;;;;3.17;75.39;101445.75;467016;113;922460;-73
2022/11/20 02:35:22;;;;;;;5.86;5.56;;;;;;;3.17;75.33;101444.89;467009;113;922871;-74
2022/11/20 02:36:28;;;;;;;5.71;5.41;;;;;;;3.16;75.33;101443.19;466841;113;922785;-73
2022/11/20 02:37:34;;;;;;;4.74;4.49;;;;;;;3.14;75.44;101440.63;466842;113;922992;-73
2022/11/20 02:38:37;;;;;;;5.05;4.75;;;;;;;3.14;75.44;101451.41;466826;111;922441;-73
2022/11/20 02:39:41;;;;;;;4.79;4.51;;;;;;;3.12;75.51;101450.73;467051;113;922873;-73
2022/11/20 02:40:44;;;;;;;4.99;4.71;;;;;;;3.13;75.48;101449.73;466954;113;922476;-73
2022/11/20 02:41:47;;;;;;;5.06;4.76;;;;;;;3.15;75.47;101458.50;467065;113;922471;-73
2022/11/20 02:42:55;;;;;;;5.53;5.23;;;;;;;3.15;75.39;101465.73;467044;113;922516;-73
2022/11/20 02:43:58;;;;;;;6.58;6.19;;;;;;;3.12;75.42;101457.95;466833;113;922512;-73
2022/11/20 02:45:01;;;;;;;5.84;5.37;;;;;;;3.13;75.54;101456.97;467031;113;922439;-72
2022/11/20 02:46:06;;;;;;;5.47;5.17;;;;;;;3.13;75.63;101449.73;467075;113;922951;-73
2022/11/20 02:47:10;;;;;;;5.27;4.97;;;;;;;3.15;75.57;101458.50;466856;113;922825;-72
2022/11/20 02:48:13;;;;;;;5.99;5.67;;;;;;;3.17;75.64;101452.97;460196;113;923009;-73
2022/11/20 02:49:16;;;;;;;5.49;5.19;;;;;;;3.17;75.50;101456.52;460461;113;922806;-73
2022/11/20 02:50:20;;;;;;;5.26;4.96;;;;;;;3.18;75.53;101451.98;466972;113;922505;-73
2022/11/20 02:51:23;;;;;;;5.42;5.12;;;;;;;3.18;75.46;101449.29;467058;113;923072;-73
2022/11/20 02:52:26;;;;;;;4.89;4.62;;;;;;;3.18;75.51;101447.45;467051;113;922512;-74
2022/11/20 02:53:29;;;;;;;5.47;5.08;;;;;;;3.21;75.59;101451.68;467046;111;923607;-73
2022/11/20 02:54:31;;;;;;;4.97;4.71;;;;;;;3.23;75.64;101457.78;467096;113;922496;-73
2022/11/20 02:55:36;;;;;;;5.34;5.04;;;;;;;3.25;75.64;101455.80;467081;113;922572;-73
2022/11/20 02:56:39;;;;;;;5.44;5.14;;;;;;;3.26;75.60;101460.17;466970;113;922470;-72
2022/11/20 02:57:42;;;;;;;5.31;5.01;;;;;;;3.27;75.62;101464.58;467136;111;922833;-73
2022/11/20 02:58:45;;;;;;;5.21;4.91;;;;;;;3.28;75.53;101477.91;475498;111;923133;-73
2022/11/20 02:59:48;;;;;;;5.46;5.16;;;;;;;3.29;75.51;101467.98;470503;111;923038;-77
2022/11/20 03:00:52;;;;;;;4.78;4.58;;;;;;;3.29;75.41;101466.14;456875;116;922563;-77
2022/11/20 03:01:55;;;;;;;5.08;4.78;;;;;;;3.30;75.47;101465.16;456760;116;922672;-78
2022/11/20 03:02:58;;;;;;;4.53;4.33;;;;;;;3.30;75.27;101462.45;456784;114;922732;-78
2022/11/20 03:04:01;;;;;;;5.49;5.19;;;;;;;3.29;75.17;101466.14;456844;116;922896;-76
2022/11/20 03:05:04;;;;;;;5.24;4.93;;;;;;;3.29;75.33;101465.29;456841;116;922551;-77
2022/11/20 03:06:07;;;;;;;4.79;4.51;;;;;;;3.29;75.23;101465.29;456857;116;922862;-79
2022/11/20 03:07:10;;;;;;;5.14;4.85;;;;;;;3.30;75.25;101467.00;456854;116;922760;-78
2022/11/20 03:08:13;;;;;;;4.83;4.53;;;;;;;3.30;75.25;101475.94;456793;114;922502;-78
2022/11/20 03:09:16;;;;;;;5.66;5.36;;;;;;;3.31;75.16;101474.06;456811;116;922892;-77
2022/11/20 03:10:19;;;;;;;4.73;4.53;;;;;;;3.30;75.04;101469.69;456810;116;922439;-77
2022/11/20 03:11:22;;;;;;;5.51;5.21;;;;;;;3.30;75.00;101467.00;456804;116;922458;-78
2022/11/20 03:12:24;;;;;;;4.71;4.41;;;;;;;3.30;75.09;101464.30;456845;116;922480;-78
2022/11/20 03:13:27;;;;;;;5.09;4.80;;;;;;;3.29;74.98;101468.84;457439;114;922532;-79
2022/11/20 03:14:30;;;;;;;5.24;4.94;;;;;;;3.31;75.12;101471.36;455642;116;922530;-77
2022/11/20 03:15:33;;;;;;;5.48;5.18;;;;;;;3.32;75.04;101470.38;455618;116;922818;-78
2022/11/20 03:16:36;;;;;;;5.78;5.47;;;;;;;3.33;75.02;101485.55;455611;116;922836;-78
2022/11/20 03:17:39;;;;;;;5.75;5.45;;;;;;;3.33;75.10;101481.02;455623;116;922551;-78
2022/11/20 03:18:42;;;;;;;5.51;5.24;;;;;;;3.34;74.82;101482.72;455580;116;922519;-77
2022/11/20 03:19:45;;;;;;;5.93;5.59;;;;;;;3.35;74.81;101480.87;455610;116;922643;-78
2022/11/20 03:20:48;;;;;;;5.37;5.07;;;;;;;3.34;74.72;101481.87;455647;116;922511;-77
2022/11/20 03:21:51;;;;;;;4.76;4.56;;;;;;;3.34;74.81;101474.64;455659;116;922516;-78
2022/11/20 03:22:54;;;;;;;4.86;4.66;;;;;;;3.36;74.87;101479.89;455583;116;922875;-78
2022/11/20 03:23:57;;;;;;;5.32;4.86;;;;;;;3.37;74.80;101481.56;455564;116;922516;-77
2022/11/20 03:25:00;;;;;;;4.74;4.44;;;;;;;3.38;74.88;101483.27;455610;116;922445;-78
2022/11/20 03:26:13;;;;;;;5.11;4.81;;;;;;;3.39;74.98;101473.34;455685;116;922592;-77
2022/11/20 03:27:16;;;;;;;4.80;4.47;;;;;;;3.41;74.91;101469.52;455420;116;922599;-77
2022/11/20 03:28:19;;;;;;;5.38;5.08;;;;;;;3.46;75.00;101469.92;455557;116;922432;-77
2022/11/20 03:29:21;;;;;;;5.16;4.86;;;;;;;3.48;74.99;101457.13;455589;116;922584;-78
2022/11/20 03:30:25;;;;;;;5.16;4.87;;;;;;;3.52;75.08;101460.39;454379;116;922573;-78
2022/11/20 03:31:33;;;;;;;4.69;4.46;;;;;;;3.54;75.08;101463.77;453574;116;922555;-78
2022/11/20 03:32:36;;;;;;;5.24;4.96;;;;;;;3.56;75.05;101459.95;454156;114;922463;-78
2022/11/20 03:33:40;;;;;;;5.46;5.16;;;;;;;3.58;74.75;101460.66;450953;117;922792;-77
2022/11/20 03:34:43;;;;;;;5.01;4.81;;;;;;;3.59;74.73;101451.55;445135;119;922552;-79
2022/11/20 03:35:46;;;;;;;4.69;4.39;;;;;;;3.62;74.75;101447.72;445231;119;923065;-78
2022/11/20 03:36:49;;;;;;;5.11;4.81;;;;;;;3.64;74.61;101446.55;445213;119;922431;-78
2022/11/20 03:37:52;;;;;;;4.01;3.81;;;;;;;3.66;74.59;101457.20;450944;117;922975;-77
2022/11/20 03:38:56;;;;;;;5.36;5.05;;;;;;;3.68;74.63;101460.61;445209;119;922776;-77
2022/11/20 03:39:59;;;;;;;5.49;5.19;;;;;;;3.69;74.47;101449.65;437997;121;922660;-78
2022/11/20 03:41:10;;;;;;;4.87;4.58;;;;;;;3.69;74.37;101444.25;443569;117;922645;-79
2022/11/20 03:43:34;;;;;;;4.77;4.54;;;;;;;3.66;73.95;101428.39;444984;117;922855;-78
2022/11/20 03:44:37;;;;;;;4.61;4.41;;;;;;;3.62;73.84;101420.75;445197;119;922656;-78
2022/11/20 03:45:40;;;;;;;4.93;4.73;;;;;;;3.59;73.80;101423.73;445217;119;923009;-78
2022/11/20 03:46:43;;;;;;;5.71;5.40;;;;;;;3.57;73.99;101421.20;445240;119;922575;-77
2022/11/20 03:47:46;;;;;;;5.03;4.73;;;;;;;3.57;73.96;101415.81;445232;119;922637;-78
2022/11/20 03:48:49;;;;;;;5.32;5.02;;;;;;;3.59;73.98;101423.73;445209;117;922615;-77
2022/11/20 03:49:54;;;;;;;5.37;5.07;;;;;;;3.58;73.98;101430.14;445072;119;922499;-76
2022/11/20 03:51:18;;;;;;;5.39;5.00;;;;;;;3.59;74.04;101429.97;445205;119;922965;-78
2022/11/20 03:52:21;;;;;;;5.61;5.31;;;;;;;3.59;73.94;101439.91;445044;119;922590;-78
2022/11/20 03:53:24;;;;;;;5.40;5.11;;;;;;;3.59;73.94;101439.91;445178;117;922666;-78
2022/11/20 03:54:26;;;;;;;5.24;4.94;;;;;;;3.57;73.82;101440.08;445197;119;922501;-79
2022/11/20 03:55:29;;;;;;;6.13;5.76;;;;;;;3.57;73.99;101439.23;445227;119;922551;-77
2022/11/20 03:56:35;;;;;;;5.99;5.69;;;;;;;3.57;73.96;101448.17;451075;117;922807;-80
2022/11/20 03:57:38;;;;;;;5.97;5.67;;;;;;;3.57;73.89;101440.08;452697;117;922547;-78
2022/11/20 03:58:41;;;;;;;6.17;5.79;;;;;;;3.60;73.77;101447.00;445142;117;923049;-79
2022/11/20 03:59:44;;;;;;;6.22;5.91;;;;;;;3.61;73.85;101456.80;445202;119;922819;-78
2022/11/20 04:00:47;;;;;;;6.32;5.91;;;;;;;3.62;73.79;101464.75;445229;119;922639;-78
2022/11/20 04:01:52;;;;;;;5.51;5.21;;;;;;;3.62;73.56;101459.36;445060;119;923071;-78
2022/11/20 04:03:00;;;;;;;6.83;6.43;;;;;;;3.61;73.47;101464.89;445087;117;922330;-77
2022/11/20 04:04:03;;;;;;;6.99;6.59;;;;;;;3.60;73.50;101473.97;444947;119;930530;-79
2022/11/20 04:05:06;;;;;;;6.65;6.25;;;;;;;3.61;73.70;101479.22;445141;119;922948;-77
2022/11/20 04:06:13;;;;;;;6.80;6.42;;;;;;;3.62;73.64;101478.23;445144;119;922509;-78
2022/11/20 04:07:16;;;;;;;6.50;6.19;;;;;;;3.63;73.52;101484.48;445029;119;922522;-77
2022/11/20 04:08:19;;;;;;;6.05;5.75;;;;;;;3.62;73.43;101483.63;445156;117;922568;-77
2022/11/20 04:09:21;;;;;;;6.71;6.35;;;;;;;3.63;73.43;101482.63;445199;119;922831;-78
2022/11/20 04:10:25;;;;;;;6.36;6.01;;;;;;;3.64;73.61;101481.61;445099;119;930562;-77
2022/11/20 04:11:31;;;;;;;5.96;5.66;;;;;;;3.66;73.58;101478.77;445150;119;931004;-77
2022/11/20 04:12:34;;;;;;;6.44;6.05;;;;;;;3.68;73.51;101487.58;444928;119;922541;-76
2022/11/20 04:13:37;;;;;;;6.42;6.03;;;;;;;3.68;73.44;101477.64;441796;117;922891;-77
2022/11/20 04:14:41;;;;;;;6.59;6.21;;;;;;;3.67;73.43;101481.33;448143;118;922486;-77
2022/11/20 04:15:43;;;;;;;6.47;6.08;;;;;;;3.68;73.42;101488.43;448168;118;930529;-79
2022/11/20 04:16:47;;;;;;;6.27;5.91;;;;;;;3.69;73.62;101476.62;451115;117;923492;-78
2022/11/20 04:17:49;;;;;;;6.91;6.51;;;;;;;3.71;73.66;101485.42;435939;121;922548;-80
2022/11/20 04:18:54;;;;;;;7.39;6.94;;;;;;;3.74;73.69;101484.30;441108;118;922687;-78
2022/11/20 04:19:57;;;;;;;7.38;6.97;;;;;;;3.74;73.60;101476.20;448499;118;922496;-78
2022/11/20 04:21:00;;;;;;;7.19;6.76;;;;;;;3.73;73.52;101475.34;448641;118;922438;-78
2022/11/20 04:22:03;;;;;;;6.04;5.71;;;;;;;3.74;73.52;101487.84;448554;118;922535;-79
2022/11/20 04:23:06;;;;;;;6.62;6.22;;;;;;;3.74;73.59;101489.69;448600;118;930488;-79
2022/11/20 04:24:10;;;;;;;6.34;6.00;;;;;;;3.73;73.49;101496.92;448621;118;922887;-79
2022/11/20 04:25:13;;;;;;;6.58;6.22;;;;;;;3.73;73.45;101509.56;448531;118;922741;-78
2022/11/20 04:26:17;;;;;;;6.57;6.17;;;;;;;3.73;73.60;101506.86;448542;118;922908;-80
2022/11/20 04:27:20;;;;;;;6.79;6.39;;;;;;;3.73;73.59;101502.31;448622;118;922625;-77
2022/11/20 04:28:22;;;;;;;6.99;6.59;;;;;;;3.74;73.74;101501.33;448567;118;922612;-77
2022/11/20 04:29:25;;;;;;;6.58;6.19;;;;;;;3.75;73.63;101500.30;448606;118;922925;-80
2022/11/20 04:30:28;;;;;;;6.76;6.36;;;;;;;3.77;73.70;101508.25;448782;118;922662;-78
2022/11/20 04:31:33;;;;;;;7.19;6.79;;;;;;;3.78;73.26;101501.87;446070;119;922591;-78
2022/11/20 04:32:36;;;;;;;6.84;6.44;;;;;;;3.74;73.15;101504.02;454961;116;923637;-79
2022/11/20 04:33:40;;;;;;;5.91;5.61;;;;;;;3.72;73.12;101508.70;455867;116;923466;-78
2022/11/20 04:34:43;;;;;;;7.49;7.05;;;;;;;3.71;73.25;101509.70;455871;116;922570;-77
2022/11/20 04:35:47;;;;;;;6.70;6.30;;;;;;;3.71;73.34;101509.70;455857;116;930434;-79
2022/11/20 04:36:50;;;;;;;7.14;6.74;;;;;;;3.71;73.21;101511.54;455787;116;922779;-78
2022/11/20 04:37:53;;;;;;;6.90;6.50;;;;;;;3.70;73.19;101515.23;455943;116;922488;-78
2022/11/20 04:39:01;;;;;;;6.71;6.31;;;;;;;3.70;73.33;101513.38;455908;116;922610;-77
2022/11/20 04:40:04;;;;;;;7.15;6.70;;;;;;;3.73;73.48;101507.71;455769;116;922994;-78
2022/11/20 04:41:16;;;;;;;7.01;6.61;;;;;;;3.75;73.40;101505.70;455895;116;922512;-78
2022/11/20 04:42:28;;;;;;;7.03;6.60;;;;;;;3.77;73.28;101503.71;455682;116;930459;-78
2022/11/20 04:43:32;;;;;;;6.21;5.91;;;;;;;3.80;73.52;101502.58;455729;116;922930;-77
2022/11/20 04:44:34;;;;;;;6.45;6.05;;;;;;;3.84;73.48;101501.28;455860;116;922906;-78
2022/11/20 04:45:37;;;;;;;7.00;6.60;;;;;;;3.86;73.50;101495.74;455903;116;930512;-79
2022/11/20 04:46:41;;;;;;;6.64;6.24;;;;;;;3.89;73.51;101498.98;455931;116;922559;-79
2022/11/20 04:47:44;;;;;;;6.50;6.10;;;;;;;3.93;73.59;101500.37;455865;116;922390;-79
2022/11/20 04:48:47;;;;;;;6.91;6.49;;;;;;;3.97;73.52;101509.03;455897;116;922677;-77
2022/11/20 04:49:50;;;;;;;6.80;6.40;;;;;;;3.97;73.29;101515.25;455941;116;922534;-79
2022/11/20 04:50:54;;;;;;;6.28;5.92;;;;;;;3.98;73.12;101513.41;455954;116;922538;-78
2022/11/20 04:51:57;;;;;;;7.13;6.73;;;;;;;3.97;73.08;101515.25;448010;118;923014;-78
2022/11/20 04:53:00;;;;;;;6.17;5.78;;;;;;;4.00;73.04;101524.91;448223;116;922654;-79
2022/11/20 04:54:03;;;;;;;6.12;5.77;;;;;;;4.01;73.07;101529.31;455913;116;923464;-79
2022/11/20 04:55:07;;;;;;;6.61;6.22;;;;;;;4.01;73.01;101532.87;455947;116;922468;-77
2022/11/20 04:56:12;;;;;;;6.37;5.97;;;;;;;4.04;73.06;101534.40;455724;116;922487;-79
2022/11/20 04:57:15;;;;;;;6.91;6.51;;;;;;;4.06;72.89;101544.06;455844;116;922625;-77
2022/11/20 04:58:18;;;;;;;6.84;6.44;;;;;;;4.06;72.89;101544.06;455885;116;922933;-78
2022/11/20 04:59:21;;;;;;;6.61;6.21;;;;;;;4.06;72.84;101545.91;455932;116;922600;-78
2022/11/20 05:00:25;;;;;;;7.23;6.75;;;;;;;4.06;72.60;101554.86;455860;116;922528;-79
2022/11/20 05:01:29;;;;;;;6.58;6.16;;;;;;;4.06;72.58;101559.40;455841;116;922843;-78
2022/11/20 05:02:32;;;;;;;7.49;7.07;;;;;;;4.06;72.52;101573.75;455915;116;922527;-77
2022/11/20 05:03:35;;;;;;;8.27;7.77;;;;;;;4.06;72.59;101562.95;455866;116;922835;-78
2022/11/20 05:04:39;;;;;;;7.46;7.04;;;;;;;4.07;72.64;101558.41;455723;116;922426;-78